createdAt,value
2019-05-25T00:00:26.596Z,98537.98
2019-05-25T00:03:00.727Z,98544.67
2019-05-25T00:05:34.834Z,98543.02
2019-05-25T00:08:09.364Z,98553.78
2019-05-25T00:10:43.485Z,98551.58
2019-05-25T00:13:17.693Z,98548.24
2019-05-25T00:15:52.140Z,98546.86
2019-05-25T00:18:26.548Z,98540.25
2019-05-25T00:21:00.670Z,98543.02
2019-05-25T00:23:36.084Z,98540.25
2019-05-25T00:26:10.001Z,98541.06
2019-05-25T00:28:44.582Z,98547.17
2019-05-25T00:31:19.769Z,98536.41
2019-05-25T00:33:54.012Z,98539.76
2019-05-25T00:36:28.126Z,98546.67
2019-05-25T00:39:02.446Z,98544.14
2019-05-25T00:41:36.558Z,98542.27
2019-05-25T00:44:10.651Z,98547.80
2019-05-25T00:46:44.567Z,98551.38
2019-05-25T00:49:18.582Z,98557.74
2019-05-25T00:51:52.751Z,98575.46
2019-05-25T00:54:28.272Z,98597.86
2019-05-25T00:57:02.788Z,98600.63
2019-05-25T00:59:37.026Z,98621.92
2019-05-25T01:02:11.084Z,98620.00
2019-05-25T01:04:45.125Z,98625.77
2019-05-25T01:07:19.349Z,98619.73
2019-05-25T01:09:53.613Z,98619.73
2019-05-25T01:12:27.632Z,98631.92
2019-05-25T01:15:01.739Z,98626.65
2019-05-25T01:17:35.939Z,98636.59
2019-05-25T01:20:10.735Z,98642.13
2019-05-25T01:22:44.816Z,98651.81
2019-05-25T01:25:19.482Z,98657.34
2019-05-25T01:27:53.475Z,98658.16
2019-05-25T01:30:27.842Z,98672.30
2019-05-25T01:33:01.928Z,98677.83
2019-05-25T01:35:36.177Z,98677.83
2019-05-25T01:38:10.038Z,98681.98
2019-05-25T01:40:44.281Z,98693.05
2019-05-25T01:43:18.092Z,98696.63
2019-05-25T01:45:53.432Z,98699.13
2019-05-25T01:48:27.520Z,98698.59
2019-05-25T01:51:01.523Z,98693.05
2019-05-25T01:53:35.368Z,98695.55
2019-05-25T01:56:09.454Z,98701.66
2019-05-25T01:58:43.424Z,98694.98
2019-05-25T02:01:17.617Z,98702.47
2019-05-25T02:03:51.625Z,98709.66
2019-05-25T02:06:26.319Z,98710.46
2019-05-25T02:09:00.441Z,98706.05
2019-05-25T02:11:34.646Z,98711.58
2019-05-25T02:14:09.749Z,98718.50
2019-05-25T02:16:43.795Z,98719.34
2019-05-25T02:19:17.729Z,98722.41
2019-05-25T02:21:51.947Z,98721.84
2019-05-25T02:24:25.796Z,98727.38
2019-05-25T02:27:00.157Z,98728.18
2019-05-25T02:29:34.178Z,98725.41
2019-05-25T02:32:08.595Z,98727.38
2019-05-25T02:34:42.597Z,98730.95
2019-05-25T02:37:17.644Z,98722.10
2019-05-25T02:39:51.780Z,98727.64
2019-05-25T02:42:26.650Z,98720.45
2019-05-25T02:45:00.700Z,98727.64
2019-05-25T02:47:34.951Z,98731.52
2019-05-25T02:50:09.960Z,98735.94
2019-05-25T02:52:43.956Z,98743.40
2019-05-25T02:55:33.167Z,98741.20
2019-05-25T02:57:54.302Z,98737.05
2019-05-25T03:00:35.442Z,98742.86
2019-05-25T03:03:10.299Z,98745.05
2019-05-25T03:05:44.436Z,98745.05
2019-05-25T03:08:18.451Z,98747.01
2019-05-25T03:10:54.882Z,98751.70
2019-05-25T03:13:30.504Z,98758.08
2019-05-25T03:16:04.657Z,98759.45
2019-05-25T03:18:39.158Z,98758.62
2019-05-25T03:21:13.191Z,98755.31
2019-05-25T03:23:47.120Z,98753.92
2019-05-25T03:26:21.425Z,98752.54
2019-05-25T03:28:55.279Z,98750.08
2019-05-25T03:31:29.418Z,98759.19
2019-05-25T03:34:03.513Z,98764.45
2019-05-25T03:36:37.831Z,98763.91
2019-05-25T03:39:12.059Z,98762.53
2019-05-25T03:41:46.225Z,98758.11
2019-05-25T03:44:20.304Z,98766.11
2019-05-25T03:46:54.313Z,98760.58
2019-05-25T03:49:28.274Z,98760.58
2019-05-25T03:52:02.437Z,98763.91
2019-05-25T03:54:36.534Z,98770.26
2019-05-25T03:57:10.367Z,98769.14
2019-05-25T03:59:44.746Z,98775.80
2019-05-25T04:02:18.871Z,98775.80
2019-05-25T04:04:53.401Z,98771.33
2019-05-25T04:07:27.512Z,98769.45
2019-05-25T04:10:02.175Z,98773.33
2019-05-25T04:12:36.407Z,98773.30
2019-05-25T04:15:10.662Z,98779.94
2019-05-25T04:17:44.949Z,98778.56
2019-05-25T04:20:19.014Z,98781.90
2019-05-25T04:22:52.904Z,98779.94
2019-05-25T04:25:27.007Z,98787.67
2019-05-25T04:28:01.059Z,98781.90
2019-05-25T04:30:35.114Z,98786.28
2019-05-25T04:33:09.261Z,98789.05
2019-05-25T04:35:43.263Z,98789.89
2019-05-25T04:38:17.168Z,98791.01
2019-05-25T04:40:51.192Z,98791.01
2019-05-25T04:43:25.024Z,98784.66
2019-05-25T04:45:59.389Z,98780.52
2019-05-25T04:48:33.517Z,98783.78
2019-05-25T04:51:07.836Z,98776.36
2019-05-25T04:53:41.924Z,98779.37
2019-05-25T04:56:16.102Z,98774.67
2019-05-25T04:58:50.104Z,98777.17
2019-05-25T05:01:25.369Z,98765.84
2019-05-25T05:04:00.925Z,98765.30
2019-05-25T05:06:34.947Z,98766.37
2019-05-25T05:09:10.671Z,98766.37
2019-05-25T05:11:45.092Z,98764.99
2019-05-25T05:14:19.070Z,98765.53
2019-05-25T05:16:53.102Z,98752.54
2019-05-25T05:19:26.886Z,98762.22
2019-05-25T05:22:00.706Z,98760.84
2019-05-25T05:24:34.863Z,98751.66
2019-05-25T05:27:09.775Z,98751.66
2019-05-25T05:29:43.844Z,98738.97
2019-05-25T05:32:27.149Z,98747.51
2019-05-25T05:34:54.238Z,98739.52
2019-05-25T05:37:29.013Z,98720.41
2019-05-25T05:40:03.645Z,98735.06
2019-05-25T05:42:40.443Z,98725.64
2019-05-25T05:45:15.742Z,98724.52
2019-05-25T05:47:52.569Z,98722.30
2019-05-25T05:50:26.959Z,98718.72
2019-05-25T05:53:03.320Z,98712.61
2019-05-25T05:55:37.585Z,98714.57
2019-05-25T05:58:11.600Z,98717.61
2019-05-25T06:00:45.843Z,98713.45
2019-05-25T06:03:20.190Z,98711.23
2019-05-25T06:05:54.292Z,98705.38
2019-05-25T06:08:28.406Z,98708.16
2019-05-25T06:11:02.622Z,98708.16
2019-05-25T06:13:38.202Z,98701.23
2019-05-25T06:16:12.391Z,98695.47
2019-05-25T06:18:46.310Z,98694.89
2019-05-25T06:21:20.441Z,98696.84
2019-05-25T06:23:54.595Z,98697.08
2019-05-25T06:26:29.124Z,98690.17
2019-05-25T06:29:03.473Z,98693.77
2019-05-25T06:31:37.831Z,98685.16
2019-05-25T06:34:11.988Z,98682.39
2019-05-25T06:36:46.683Z,98672.71
2019-05-25T06:39:20.855Z,98674.09
2019-05-25T06:41:55.173Z,98669.94
2019-05-25T06:44:29.641Z,98663.84
2019-05-25T06:47:04.062Z,98670.20
2019-05-25T06:49:38.162Z,98672.41
2019-05-25T06:52:12.272Z,98653.61
2019-05-25T06:54:46.440Z,98658.30
2019-05-25T06:57:20.647Z,98649.45
2019-05-25T06:59:55.017Z,98653.03
2019-05-25T07:02:29.357Z,98638.08
2019-05-25T07:05:03.798Z,98636.43
2019-05-25T07:07:38.100Z,98632.55
2019-05-25T07:10:12.495Z,98631.97
2019-05-25T07:12:46.990Z,98622.28
2019-05-25T07:15:21.796Z,98619.52
2019-05-25T07:17:56.089Z,98612.86
2019-05-25T07:20:30.400Z,98617.81
2019-05-25T07:23:04.516Z,98621.42
2019-05-25T07:25:38.763Z,98611.97
2019-05-25T07:28:12.918Z,98620.27
2019-05-25T07:30:47.107Z,98614.74
2019-05-25T07:33:21.060Z,98607.02
2019-05-25T07:35:55.422Z,98600.91
2019-05-25T07:38:29.604Z,98598.41
2019-05-25T07:41:04.371Z,98592.87
2019-05-25T07:43:38.418Z,98593.94
2019-05-25T07:46:16.491Z,98589.52
2019-05-25T07:48:50.491Z,98587.59
2019-05-25T07:51:24.821Z,98582.06
2019-05-25T07:53:59.268Z,98583.67
2019-05-25T07:56:33.365Z,98580.91
2019-05-25T07:59:08.107Z,98573.13
2019-05-25T08:01:42.407Z,98572.88
2019-05-25T08:04:16.864Z,98570.36
2019-05-25T08:06:50.990Z,98572.02
2019-05-25T08:09:25.353Z,98573.63
2019-05-25T08:11:59.641Z,98560.63
2019-05-25T08:14:33.934Z,98555.09
2019-05-25T08:17:08.943Z,98555.64
2019-05-25T08:19:43.294Z,98543.44
2019-05-25T08:22:17.597Z,98540.10
2019-05-25T08:24:52.754Z,98533.19
2019-05-25T08:27:27.083Z,98543.97
2019-05-25T08:30:01.551Z,98526.78
2019-05-25T08:32:35.609Z,98524.83
2019-05-25T08:35:14.209Z,98508.22
2019-05-25T08:37:48.284Z,98509.06
2019-05-25T08:40:23.245Z,98509.60
2019-05-25T08:42:57.487Z,98502.95
2019-05-25T08:45:31.607Z,98495.74
2019-05-25T08:48:06.388Z,98491.59
2019-05-25T08:50:41.010Z,98486.31
2019-05-25T08:53:15.196Z,98487.13
2019-05-25T08:55:49.639Z,98478.82
2019-05-25T08:58:23.685Z,98479.08
2019-05-25T09:00:58.172Z,98473.80
2019-05-25T09:03:32.443Z,98466.89
2019-05-25T09:06:06.420Z,98466.89
2019-05-25T09:08:40.616Z,98461.58
2019-05-25T09:11:14.588Z,98456.30
2019-05-25T09:13:48.617Z,98451.58
2019-05-25T09:16:23.017Z,98449.38
2019-05-25T09:18:57.090Z,98446.30
2019-05-25T09:21:31.546Z,98449.88
2019-05-25T09:24:06.012Z,98438.25
2019-05-25T09:26:40.295Z,98441.83
2019-05-25T09:29:14.529Z,98442.66
2019-05-25T09:31:48.764Z,98438.52
2019-05-25T09:34:24.188Z,98442.35
2019-05-25T09:37:00.843Z,98442.35
2019-05-25T09:39:37.432Z,98439.81
2019-05-25T09:42:14.007Z,98434.53
2019-05-25T09:44:49.626Z,98426.80
2019-05-25T09:47:23.896Z,98421.81
2019-05-25T09:50:00.770Z,98412.39
2019-05-25T09:52:34.911Z,98421.76
2019-05-25T09:55:09.982Z,98416.48
2019-05-25T09:57:44.217Z,98420.89
2019-05-25T10:00:18.834Z,98413.39
2019-05-25T10:02:53.051Z,98401.42
2019-05-25T10:05:27.446Z,98409.73
2019-05-25T10:08:01.402Z,98405.58
2019-05-25T10:10:35.526Z,98398.11
2019-05-25T10:13:09.445Z,98388.97
2019-05-25T10:15:43.901Z,98389.48
2019-05-25T10:18:17.875Z,98397.47
2019-05-25T10:20:52.408Z,98385.01
2019-05-25T10:23:27.796Z,98383.05
2019-05-25T10:26:02.078Z,98390.80
2019-05-25T10:28:36.106Z,98373.03
2019-05-25T10:31:10.410Z,98376.64
2019-05-25T10:33:45.377Z,98375.26
2019-05-25T10:36:19.811Z,98372.75
2019-05-25T10:38:54.771Z,98367.44
2019-05-25T10:41:29.272Z,98364.66
2019-05-25T10:44:03.720Z,98355.23
2019-05-25T10:46:37.720Z,98358.81
2019-05-25T10:49:11.988Z,98348.57
2019-05-25T10:51:46.244Z,98350.18
2019-05-25T10:54:20.477Z,98346.03
2019-05-25T10:56:54.424Z,98341.00
2019-05-25T10:59:28.750Z,98341.00
2019-05-25T11:02:03.000Z,98344.84
2019-05-25T11:04:37.012Z,98334.34
2019-05-25T11:07:11.208Z,98331.25
2019-05-25T11:09:45.419Z,98339.78
2019-05-25T11:12:19.882Z,98329.55
2019-05-25T11:14:53.962Z,98325.94
2019-05-25T11:17:28.398Z,98330.86
2019-05-25T11:20:02.537Z,98328.90
2019-05-25T11:22:36.836Z,98335.24
2019-05-25T11:25:11.138Z,98329.96
2019-05-25T11:27:45.535Z,98321.07
2019-05-25T11:30:19.535Z,98328.25
2019-05-25T11:32:53.890Z,98327.13
2019-05-25T11:35:28.186Z,98327.38
2019-05-25T11:38:02.407Z,98327.94
2019-05-25T11:40:36.262Z,98327.61
2019-05-25T11:43:10.552Z,98321.52
2019-05-25T11:45:45.490Z,98321.52
2019-05-25T11:48:19.734Z,98316.20
2019-05-25T11:50:53.991Z,98324.52
2019-05-25T11:53:28.112Z,98319.49
2019-05-25T11:56:02.154Z,98318.91
2019-05-25T11:58:46.902Z,98318.36
2019-05-25T12:01:12.649Z,98315.02
2019-05-25T12:03:46.676Z,98319.65
2019-05-25T12:06:20.834Z,98321.32
2019-05-25T12:08:54.918Z,98328.51
2019-05-25T12:11:28.827Z,98325.73
2019-05-25T12:14:02.849Z,98324.03
2019-05-25T12:16:36.842Z,98326.80
2019-05-25T12:19:14.718Z,98324.28
2019-05-25T12:21:47.226Z,98323.70
2019-05-25T12:24:33.931Z,98323.13
2019-05-25T12:27:08.031Z,98324.77
2019-05-25T12:29:42.243Z,98324.77
2019-05-25T12:32:16.021Z,98328.34
2019-05-25T12:34:50.213Z,98332.20
2019-05-25T12:37:24.378Z,98327.21
2019-05-25T12:39:58.788Z,98339.61
2019-05-25T12:42:32.692Z,98336.84
2019-05-25T12:45:08.218Z,98330.98
2019-05-25T12:47:42.448Z,98340.67
2019-05-25T12:50:17.689Z,98336.52
2019-05-25T12:52:51.979Z,98335.64
2019-05-25T12:55:26.040Z,98341.73
2019-05-25T12:58:00.293Z,98340.03
2019-05-25T13:00:34.350Z,98340.86
2019-05-25T13:03:10.931Z,98343.05
2019-05-25T13:05:44.347Z,98341.92
2019-05-25T13:08:18.728Z,98344.70
2019-05-25T13:10:52.842Z,98347.37
2019-05-25T13:13:27.019Z,98347.37
2019-05-25T13:16:00.984Z,98354.87
2019-05-25T13:18:35.108Z,98350.39
2019-05-25T13:21:09.038Z,98347.88
2019-05-25T13:23:43.479Z,98347.88
2019-05-25T13:26:17.645Z,98351.71
2019-05-25T13:28:51.789Z,98350.33
2019-05-25T13:31:25.873Z,98353.58
2019-05-25T13:34:00.281Z,98346.42
2019-05-25T13:36:34.365Z,98344.46
2019-05-25T13:39:09.557Z,98349.13
2019-05-25T13:41:43.565Z,98351.91
2019-05-25T13:44:17.666Z,98354.09
2019-05-25T13:46:51.655Z,98351.00
2019-05-25T13:49:26.728Z,98355.95
2019-05-25T13:52:02.038Z,98354.58
2019-05-25T13:54:36.119Z,98360.38
2019-05-25T13:57:10.130Z,98359.24
2019-05-25T13:59:44.341Z,98363.66
2019-05-25T14:02:18.499Z,98363.88
2019-05-25T14:04:52.609Z,98358.34
2019-05-25T14:07:26.524Z,98360.56
2019-05-25T14:10:00.747Z,98359.98
2019-05-25T14:12:34.816Z,98356.63
2019-05-25T14:15:09.685Z,98364.62
2019-05-25T14:17:43.541Z,98364.62
2019-05-25T14:20:18.230Z,98364.33
2019-05-25T14:22:52.222Z,98365.71
2019-05-25T14:25:26.481Z,98365.13
2019-05-25T14:28:00.674Z,98360.06
2019-05-25T14:30:35.099Z,98361.23
2019-05-25T14:33:09.072Z,98362.84
2019-05-25T14:35:43.755Z,98369.22
2019-05-25T14:38:17.983Z,98364.48
2019-05-25T14:40:52.146Z,98370.28
2019-05-25T14:43:26.181Z,98372.73
2019-05-25T14:46:00.154Z,98368.56
2019-05-25T14:48:34.416Z,98378.75
2019-05-25T14:51:08.569Z,98380.46
2019-05-25T14:53:42.628Z,98382.91
2019-05-25T14:56:16.696Z,98386.52
2019-05-25T14:58:50.620Z,98383.97
2019-05-25T15:01:24.749Z,98387.00
2019-05-25T15:03:58.732Z,98392.80
2019-05-25T15:06:33.267Z,98390.02
2019-05-25T15:09:09.241Z,98391.99
2019-05-25T15:11:43.140Z,98390.28
2019-05-25T15:14:17.393Z,98384.16
2019-05-25T15:16:51.496Z,98391.09
2019-05-25T15:19:26.759Z,98392.18
2019-05-25T15:22:00.789Z,98394.95
2019-05-25T15:24:35.097Z,98397.73
2019-05-25T15:27:09.210Z,98399.37
2019-05-25T15:29:43.360Z,98397.40
2019-05-25T15:32:20.484Z,98406.52
2019-05-25T15:34:53.410Z,98405.14
2019-05-25T15:37:27.539Z,98409.30
2019-05-25T15:40:01.559Z,98411.52
2019-05-25T15:42:35.518Z,98414.55
2019-05-25T15:45:10.101Z,98417.55
2019-05-25T15:47:43.986Z,98419.77
2019-05-25T15:50:18.224Z,98410.29
2019-05-25T15:52:52.284Z,98411.45
2019-05-25T15:55:26.267Z,98410.29
2019-05-25T15:58:00.686Z,98411.93
2019-05-25T16:00:48.724Z,98414.45
2019-05-25T16:03:23.361Z,98417.48
2019-05-25T16:05:57.767Z,98417.73
2019-05-25T16:08:31.993Z,98416.34
2019-05-25T16:11:06.432Z,98417.98
2019-05-25T16:13:40.446Z,98412.19
2019-05-25T16:16:14.404Z,98425.14
2019-05-25T16:18:48.510Z,98417.98
2019-05-25T16:21:22.639Z,98418.21
2019-05-25T16:23:56.652Z,98420.44
2019-05-25T16:26:44.921Z,98417.08
2019-05-25T16:29:06.769Z,98418.72
2019-05-25T16:31:40.995Z,98422.05
2019-05-25T16:34:14.954Z,98422.88
2019-05-25T16:36:48.860Z,98425.88
2019-05-25T16:39:23.008Z,98425.88
2019-05-25T16:41:57.111Z,98423.11
2019-05-25T16:44:31.231Z,98428.91
2019-05-25T16:47:05.282Z,98424.75
2019-05-25T16:49:39.668Z,98428.66
2019-05-25T16:52:13.699Z,98433.06
2019-05-25T16:54:48.113Z,98432.52
2019-05-25T16:57:22.380Z,98433.33
2019-05-25T17:00:00.219Z,98429.16
2019-05-25T17:02:34.281Z,98432.74
2019-05-25T17:05:09.170Z,98438.55
2019-05-25T17:07:43.299Z,98429.42
2019-05-25T17:10:17.641Z,98430.81
2019-05-25T17:12:51.729Z,98433.58
2019-05-25T17:15:25.863Z,98435.77
2019-05-25T17:18:04.392Z,98433.58
2019-05-25T17:20:35.725Z,98433.00
2019-05-25T17:23:09.797Z,98428.26
2019-05-25T17:25:43.734Z,98428.84
2019-05-25T17:28:17.824Z,98429.64
2019-05-25T17:30:51.995Z,98436.83
2019-05-25T17:33:26.213Z,98436.25
2019-05-25T17:36:00.348Z,98432.67
2019-05-25T17:38:34.590Z,98430.70
2019-05-25T17:41:08.587Z,98430.16
2019-05-25T17:43:42.774Z,98429.32
2019-05-25T17:46:16.750Z,98428.19
2019-05-25T17:48:51.041Z,98419.31
2019-05-25T17:51:26.509Z,98427.64
2019-05-25T17:54:00.526Z,98426.25
2019-05-25T17:56:34.869Z,98422.64
2019-05-25T17:59:09.025Z,98414.00
2019-05-25T18:01:44.249Z,98408.22
2019-05-25T18:04:18.257Z,98408.45
2019-05-25T18:06:52.256Z,98408.45
2019-05-25T18:09:26.289Z,98407.64
2019-05-25T18:12:00.625Z,98404.29
2019-05-25T18:14:34.499Z,98400.38
2019-05-25T18:17:08.778Z,98402.35
2019-05-25T18:19:42.966Z,98399.00
2019-05-25T18:22:17.002Z,98390.67
2019-05-25T18:24:51.327Z,98392.06
2019-05-25T18:27:25.577Z,98388.16
2019-05-25T18:29:59.798Z,98390.93
2019-05-25T18:32:33.882Z,98382.36
2019-05-25T18:35:08.301Z,98392.32
2019-05-25T18:37:42.297Z,98384.80
2019-05-25T18:40:16.955Z,98382.84
2019-05-25T18:42:51.007Z,98378.67
2019-05-25T18:45:25.204Z,98376.73
2019-05-25T18:47:59.464Z,98372.65
2019-05-25T18:50:33.541Z,98372.32
2019-05-25T18:53:07.801Z,98366.45
2019-05-25T18:55:42.358Z,98360.64
2019-05-25T18:58:16.315Z,98359.26
2019-05-25T19:00:50.403Z,98362.03
2019-05-25T19:03:24.417Z,98359.26
2019-05-25T19:05:58.397Z,98353.71
2019-05-25T19:08:32.374Z,98352.33
2019-05-25T19:11:06.218Z,98347.62
2019-05-25T19:13:40.498Z,98345.39
2019-05-25T19:16:14.483Z,98341.48
2019-05-25T19:18:48.644Z,98341.48
2019-05-25T19:21:22.710Z,98335.94
2019-05-25T19:23:56.628Z,98341.48
2019-05-25T19:26:30.668Z,98339.84
2019-05-25T19:29:05.865Z,98333.17
2019-05-25T19:31:39.891Z,98336.52
2019-05-25T19:34:14.126Z,98324.84
2019-05-25T19:36:48.153Z,98320.69
2019-05-25T19:39:23.260Z,98320.69
2019-05-25T19:41:57.419Z,98322.07
2019-05-25T19:44:31.229Z,98315.39
2019-05-25T19:47:05.420Z,98316.78
2019-05-25T19:49:39.504Z,98318.16
2019-05-25T19:52:13.448Z,98314.00
2019-05-25T19:54:47.317Z,98313.75
2019-05-25T19:57:21.365Z,98307.66
2019-05-25T19:59:55.462Z,98304.88
2019-05-25T20:02:29.465Z,98305.44
2019-05-25T20:05:15.771Z,98298.75
2019-05-25T20:07:39.443Z,98297.37
2019-05-25T20:10:14.545Z,98290.44
2019-05-25T20:12:48.734Z,98282.69
2019-05-25T20:15:22.906Z,98292.40
2019-05-25T20:17:56.856Z,98283.83
2019-05-25T20:20:31.070Z,98283.24
2019-05-25T20:23:05.083Z,98286.02
2019-05-25T20:25:39.004Z,98281.30
2019-05-25T20:28:13.068Z,98272.98
2019-05-25T20:30:46.861Z,98273.79
2019-05-25T20:33:27.488Z,98274.38
2019-05-25T20:35:56.551Z,98276.56
2019-05-25T20:38:30.343Z,98270.22
2019-05-25T20:41:04.664Z,98269.63
2019-05-25T20:43:38.601Z,98261.31
2019-05-25T20:46:13.002Z,98264.08
2019-05-25T20:48:47.054Z,98263.50
2019-05-25T20:51:21.045Z,98263.50
2019-05-25T20:53:56.767Z,98259.67
2019-05-25T20:56:30.877Z,98265.47
2019-05-25T20:59:04.937Z,98262.45
2019-05-25T21:01:39.176Z,98259.67
2019-05-25T21:04:13.413Z,98261.31
2019-05-25T21:06:47.342Z,98262.45
2019-05-25T21:09:21.698Z,98266.86
2019-05-25T21:11:56.432Z,98265.47
2019-05-25T21:14:31.133Z,98267.44
2019-05-25T21:17:05.228Z,98256.90
2019-05-25T21:19:39.566Z,98263.83
2019-05-25T21:22:13.637Z,98258.28
2019-05-25T21:24:47.833Z,98265.22
2019-05-25T21:27:21.854Z,98272.16
2019-05-25T21:29:55.895Z,98279.67
2019-05-25T21:32:30.026Z,98281.05
2019-05-25T21:35:04.102Z,98285.77
2019-05-25T21:37:38.116Z,98284.70
2019-05-25T21:40:13.477Z,98286.09
2019-05-25T21:42:47.337Z,98280.55
2019-05-25T21:45:21.942Z,98289.13
2019-05-25T21:47:56.578Z,98294.09
2019-05-25T21:50:32.034Z,98299.08
2019-05-25T21:53:06.183Z,98295.25
2019-05-25T21:55:39.989Z,98287.48
2019-05-25T21:58:14.074Z,98291.97
2019-05-25T22:00:48.472Z,98288.64
2019-05-25T22:03:22.684Z,98288.39
2019-05-25T22:05:56.793Z,98289.20
2019-05-25T22:08:30.982Z,98299.48
2019-05-25T22:11:05.160Z,98293.94
2019-05-25T22:13:38.974Z,98291.75
2019-05-25T22:16:13.193Z,98292.88
2019-05-25T22:18:47.035Z,98295.66
2019-05-25T22:21:21.260Z,98293.13
2019-05-25T22:23:55.403Z,98303.39
2019-05-25T22:26:29.694Z,98299.23
2019-05-25T22:29:04.252Z,98300.63
2019-05-25T22:31:38.372Z,98297.84
2019-05-25T22:34:12.515Z,98304.53
2019-05-25T22:36:46.488Z,98309.52
2019-05-25T22:39:20.540Z,98309.52
2019-05-25T22:41:54.780Z,98307.88
2019-05-25T22:44:30.068Z,98301.75
2019-05-25T22:47:05.095Z,98305.11
2019-05-25T22:49:39.309Z,98306.49
2019-05-25T22:52:13.435Z,98314.81
2019-05-25T22:54:47.512Z,98314.56
2019-05-25T22:57:21.690Z,98306.23
2019-05-25T22:59:56.145Z,98311.78
2019-05-25T23:02:30.365Z,98312.37
2019-05-25T23:05:07.097Z,98324.05
2019-05-25T23:07:40.473Z,98325.66
2019-05-25T23:10:14.664Z,98333.75
2019-05-25T23:12:48.732Z,98335.13
2019-05-25T23:15:22.975Z,98342.62
2019-05-25T23:17:56.825Z,98340.42
2019-05-25T23:20:30.636Z,98347.61
2019-05-25T23:23:04.851Z,98353.71
2019-05-25T23:25:38.612Z,98361.22
2019-05-25T23:28:12.421Z,98365.64
2019-05-25T23:30:47.269Z,98365.64
2019-05-25T23:33:21.454Z,98365.38
2019-05-25T23:35:55.534Z,98366.52
2019-05-25T23:38:29.712Z,98367.91
2019-05-25T23:41:03.674Z,98373.19
2019-05-25T23:43:37.748Z,98381.52
2019-05-25T23:46:11.566Z,98383.16
2019-05-25T23:48:45.735Z,98385.13
2019-05-25T23:51:19.705Z,98384.28
2019-05-25T23:53:53.891Z,98380.96
2019-05-25T23:56:27.963Z,98398.73
2019-05-25T23:59:01.836Z,98395.16
